Friday, October 19, 2018, 2:52 AM EDT
Back to Local

KIDI, Indiana / Stewart Field

Location: Indiana, PA, United States Lat: 40.633
Local Time: 2:52 AM EDT ( 6:52 GMT) Lon: -79.1
Time Zone: US/Eastern Elev: 1407 ft

Show me the last for .
Show Decoded

2018-10-19 02:35 METAR KIDI 190635Z AUTO 00000KT 10SM CLR 01/M00 A3039 RMK A01 =
2018-10-19 02:15 METAR KIDI 190615Z AUTO 00000KT 10SM CLR 01/00 A3039 RMK A01 =
2018-10-19 01:55 METAR KIDI 190555Z AUTO 00000KT 10SM CLR 01/00 A3039 RMK A01 =
2018-10-19 01:15 METAR KIDI 190515Z AUTO 00000KT 10SM CLR 01/00 A3039 RMK A01 =
2018-10-19 00:55 METAR KIDI 190455Z AUTO 00000KT 10SM CLR 01/M00 A3039 RMK A01 =
2018-10-19 00:35 METAR KIDI 190435Z AUTO 00000KT 10SM CLR 01/00 A3040 RMK A01 =
2018-10-19 00:15 METAR KIDI 190415Z AUTO 00000KT 10SM CLR 02/00 A3040 RMK A01 =
2018-10-18 23:55 METAR KIDI 190355Z AUTO 00000KT 10SM CLR 02/00 A3040 RMK A01 =
2018-10-18 23:35 METAR KIDI 190335Z AUTO 00000KT 10SM CLR 02/00 A3040 RMK A01 =
2018-10-18 23:15 METAR KIDI 190315Z AUTO 00000KT 10SM CLR 02/00 A3041 RMK A01 =
2018-10-18 22:55 METAR KIDI 190255Z AUTO 00000KT 10SM CLR 02/00 A3041 RMK A01 =
2018-10-18 22:35 METAR KIDI 190235Z AUTO 00000KT 10SM CLR 02/00 A3041 RMK A01 =
2018-10-18 22:15 METAR KIDI 190215Z AUTO 00000KT 10SM CLR 02/00 A3041 RMK A01 =
2018-10-18 21:55 METAR KIDI 190155Z AUTO 00000KT 10SM CLR 02/01 A3041 RMK A01 =
2018-10-18 21:35 METAR KIDI 190135Z AUTO 00000KT 10SM CLR 02/01 A3041 RMK A01 =
2018-10-18 21:15 METAR KIDI 190115Z AUTO 00000KT 10SM CLR 03/01 A3041 RMK A01 =
2018-10-18 20:55 METAR KIDI 190055Z AUTO 00000KT 10SM CLR 03/01 A3042 RMK A01 =
2018-10-18 20:35 METAR KIDI 190035Z AUTO 00000KT 10SM CLR 03/01 A3042 RMK A01 =
2018-10-18 20:15 METAR KIDI 190015Z AUTO 00000KT 10SM CLR 04/01 A3042 RMK A01 =
2018-10-18 19:55 METAR KIDI 182355Z AUTO 00000KT 10SM CLR 05/00 A3042 RMK A01 =
2018-10-18 19:35 METAR KIDI 182335Z AUTO 00000KT 10SM CLR 05/00 A3043 RMK A01 =
2018-10-18 19:15 METAR KIDI 182315Z AUTO 00000KT 10SM CLR 06/M00 A3043 RMK A01 =
2018-10-18 18:55 METAR KIDI 182255Z AUTO 31004KT 10SM CLR 07/M01 A3043 RMK A01 =
2018-10-18 18:35 METAR KIDI 182235Z AUTO 00000KT 10SM CLR 07/M01 A3043 RMK A01 =
2018-10-18 18:15 METAR KIDI 182215Z AUTO 30004KT 10SM CLR 08/M01 A3043 RMK A01 =
2018-10-18 17:55 METAR KIDI 182155Z AUTO 29004KT 10SM CLR 09/M01 A3043 RMK A01 =
2018-10-18 17:35 METAR KIDI 182135Z AUTO 29006G12KT 10SM CLR 09/M01 A3043 RMK A01 =
2018-10-18 17:15 METAR KIDI 182115Z AUTO 30005KT 10SM CLR 09/M01 A3043 RMK A01 =
2018-10-18 16:55 METAR KIDI 182055Z AUTO 29008KT 10SM CLR 09/M01 A3043 RMK A01 =
2018-10-18 16:35 METAR KIDI 182035Z AUTO VRB06G11KT 10SM CLR 09/M01 A3043 RMK A01 =
2018-10-18 16:15 METAR KIDI 182015Z AUTO 31010KT 10SM CLR 09/M01 A3043 RMK A01 =
2018-10-18 15:55 METAR KIDI 181955Z AUTO 31010KT 10SM FEW046 09/M01 A3044 RMK A01 =
2018-10-18 15:33 METAR KIDI 181935Z AUTO 28011KT 10SM SCT046 09/M01 A3044 RMK A01 =
2018-10-18 15:15 METAR KIDI 181915Z AUTO 31009G14KT 10SM CLR 09/M01 A3045 RMK A01 =
2018-10-18 14:55 METAR KIDI 181855Z AUTO 28009G14KT 10SM CLR 09/M01 A3045 RMK A01 =
2018-10-18 14:35 METAR KIDI 181835Z AUTO 30007G12KT 260V330 10SM FEW043 09/M01 A3046 RMK A01 =
2018-10-18 14:15 METAR KIDI 181815Z AUTO VRB04G13KT 10SM SCT042 08/M01 A3046 RMK A01 =
2018-10-18 13:55 METAR KIDI 181755Z AUTO 30009KT 10SM SCT040 08/M01 A3047 RMK A01 =
2018-10-18 13:35 METAR KIDI 181735Z AUTO 32007G13KT 280V340 10SM BKN039 08/M01 A3047 RMK A01 =
2018-10-18 13:15 METAR KIDI 181715Z AUTO VRB06KT 10SM BKN039 07/M01 A3048 RMK A01 =
2018-10-18 12:55 METAR KIDI 181655Z AUTO 31007G13KT 250V340 10SM BKN038 07/M01 A3049 RMK A01 =
2018-10-18 12:35 METAR KIDI 181635Z AUTO 29009G15KT 10SM BKN037 06/M02 A3049 RMK A01 =
2018-10-18 12:15 METAR KIDI 181615Z AUTO 33009KT 10SM BKN036 06/M02 A3048 RMK A01 =
2018-10-18 11:55 METAR KIDI 181555Z AUTO VRB06KT 10SM OVC035 06/M01 A3048 RMK A01 =
2018-10-18 11:35 METAR KIDI 181535Z AUTO 35007KT 10SM BKN033 05/M02 A3049 RMK A01 =
2018-10-18 11:15 METAR KIDI 181515Z AUTO 29005G11KT 10SM FEW026 BKN032 05/M02 A3048 RMK A01 =
2018-10-18 10:55 METAR KIDI 181455Z AUTO VRB04KT 10SM FEW021 SCT026 OVC032 05/M01 A3048 RMK A01 =
2018-10-18 10:35 METAR KIDI 181435Z AUTO 30005KT 10SM SCT022 BKN027 OVC032 04/00 A3048 RMK A01 =
2018-10-18 10:15 METAR KIDI 181415Z AUTO VRB04KT 10SM SCT023 BKN027 OVC034 04/M00 A3048 RMK A01 =
2018-10-18 09:55 METAR KIDI 181355Z AUTO 33004KT 10SM BKN028 BKN034 04/00 A3048 RMK A01 =
2018-10-18 09:35 METAR KIDI 181335Z AUTO VRB04KT 10SM BKN024 BKN035 03/M00 A3048 RMK A01 =
2018-10-18 09:15 METAR KIDI 181315Z AUTO 34006KT 10SM BKN023 OVC029 03/M00 A3047 RMK A01 =
2018-10-18 08:55 METAR KIDI 181255Z AUTO 32005KT 10SM OVC029 03/M00 A3046 RMK A01 =
2018-10-18 08:35 METAR KIDI 181235Z AUTO 31004KT 10SM SCT027 OVC034 03/M00 A3046 RMK A01 =
2018-10-18 08:15 METAR KIDI 181215Z AUTO 00000KT 10SM OVC037 03/M00 A3045 RMK A01 =
2018-10-18 07:55 METAR KIDI 181155Z AUTO 31004KT 10SM OVC039 03/M00 A3044 RMK A01 =
2018-10-18 07:33 METAR KIDI 181135Z AUTO 28003KT 10SM OVC041 02/M01 A3043 RMK A01 =
2018-10-18 07:15 METAR KIDI 181115Z AUTO 00000KT 10SM BKN041 03/M01 A3042 RMK A01 =
2018-10-18 06:55 METAR KIDI 181055Z AUTO 31004KT 10SM FEW043 03/M01 A3042 RMK A01 =
2018-10-18 06:34 METAR KIDI 181035Z AUTO 32006KT 10SM OVC043 03/M02 A3042 RMK A01 =
2018-10-18 06:15 METAR KIDI 181015Z AUTO 30004KT 10SM BKN044 BKN049 03/M02 A3040 RMK A01 =
2018-10-18 05:35 METAR KIDI 180935Z AUTO 31007G13KT 290V350 10SM OVC048 04/M02 A3039 RMK A01 =
2018-10-18 05:15 METAR KIDI 180915Z AUTO 30008KT 10SM OVC050 04/M03 A3039 RMK A01 =
2018-10-18 04:55 METAR KIDI 180855Z AUTO 29005KT 10SM BKN050 03/M03 A3038 RMK A01 =
2018-10-18 04:35 METAR KIDI 180835Z AUTO 29006KT 10SM FEW050 03/M03 A3038 RMK A01 =
2018-10-18 04:15 METAR KIDI 180815Z AUTO 29006KT 10SM CLR 03/M03 A3037 RMK A01 =
2018-10-18 03:55 METAR KIDI 180755Z AUTO 30005KT 10SM CLR 03/M02 A3037 RMK A01 =
2018-10-18 03:35 METAR KIDI 180735Z AUTO 29005G12KT 10SM CLR 04/M02 A3036 RMK A01 =
2018-10-18 03:15 METAR KIDI 180715Z AUTO 30005KT 10SM CLR 04/M02 A3036 RMK A01 =
2018-10-18 02:55 METAR KIDI 180655Z AUTO 30005G12KT 10SM SCT055 04/M02 A3036 RMK A01 =

Support USWX by starting your Amazon purchase here.